Terminal Aerodrome Forecast
Issued by NWS

Home | Current Version | Previous Version | Text Only | Print | Product List | Glossary On
Versions: 1 2 3 4 5 6 7 8 9 10 11 12 13 14 15 16 17
000
FTUS46 KSEW 171100
TAFBFI
TAF
KBFI 171128Z 1712/1812 17008KT P6SM -RA BKN011 OVC020
     FM171600 17008KT P6SM -RA SCT011 BKN020 OVC030
     FM172300 19012G20KT P6SM -SHRA SCT020 BKN030 OVC045
     FM180300 22012KT P6SM SCT025 BKN040=

USA.gov is the U.S. government's official web portal to all federal, state and local government web resources and services.